Airfield :
LOGIN :

Register | Disclaimer

   EN    FR    IT 

 










Legend :    VFR   Marginal VFR   IFR   Intensive IFR   Very Intensive IFR
Visi :
Ceiling :
>= 8 km
>= 3000ft
5 to 8 km
1000 to 3000 ft
1500m to 5 km
500 to 1000 ft
800 to 1500m
200 to 500 ft
< 800m
< 200 ft
Symbols :   Thunderstorms  Fog  Heavy snow  Heavy precipitations  Wind > 20 kt
SIGMETs :     Misc.  Thunderstorms  Icing  Turbulence  Mountain Waves  Volcanic Ashes







- Airport Elevation : 778 ft
- IATA code : BRQ


LKTB - Brno-Turany

CURRENT METAR :
  • 191800Z 06003KT 6000 NSC 13/10 Q1017 BECMG 4000 BR

EXPIRED METARs :
  • 191730Z 07005KT 7000 NSC 13/11 Q1017 NOSIG
  • 191700Z 07005KT 8000 NSC 14/11 Q1016 NOSIG
  • 191630Z 06004KT 9000 NSC 16/11 Q1016 NOSIG
  • 191600Z 14003KT CAVOK 16/10 Q1016 NOSIG
  • 191530Z 17003KT CAVOK 17/10 Q1016 NOSIG

TAF TAF LKTB
Valid from the 19 at 18:00 until the 21 at 00:00 UTC


191700Z 1918/2100 VRB02KT CAVOK
BECMG 1918/1919 4000 BR NSC
BECMG 1919/1921 1200 BR SCT003
TEMPO 1921/2008 0700 FG OVC002
PROB40
TEMPO 1922/2007 0400 FG OVC001
BECMG 2009/2011 5000 BR BKN009
TEMPO 2011/2017 7000 SCT014
TEMPO 2018/2100 1800 BR SCT005
No reported NOTAMs for that airfield.



MET'MAP, your aeronautical weather chart ! - Copyright ORBIFLY December 2007 - Disclaimer

ORBIFLY MET'MAP TEAM :

Programming & Development : Alexandra Zaïnal
Concept & Development : Baudouin d'Aumeries
Co-Development & Prog : Marc-Olivier Méhu
Technical & hardware support : Manuel Goepfert

Contact : metmap@orbifly.com




SOURCES & CREDITS :

   NOAA